Granville, Missouri
Current Conditions -  °F | °C
As of 4:55 AM on Friday 31 Oct 2014 (Local Time) from KHAE Reporting Station
Overcast Overcast  
Wind Chill: 39°   Ceiling: 3000
Heat Index: 46°   Visibility: 10mi
Dew Point: 32°   Wind: 20mph
Humidity: 57%   Direction: 340°NNW
Pressure: 30.2"   Gusts: 28mph
Location:  39.5207°N, 92.0162°W
Report Text: KHAE 310955Z AUTO 34017G24KT 10SM BKN030 OVC038 08/00 A3020 RMK AO2
Loading
Personal Weather Stations






























Interactive Weather Map
Tropical Storm Tracking
New forecast layout! Learn more

10-Day Weather Forecast

Advertisements
Track Severe Weather on mobile